Time;durP1;ratioP1;P1;durP2;ratioP2;P2;SDS_P1;SDS_P2;PMS_P1;PMS_P2;Temp;Humidity;BMP_temperature;BMP_pressure;BME280_temperature;BME280_humidity;BME280_pressure;Samples;Min_cycle;Max_cycle;Signal;HPM_P1;HPM_P2
2022/03/06 00:00:47;;;;;;;20.57;12.37;;;-1.10;99.90;;;;;;5050610;28;20681;-67
2022/03/06 00:03:14;;;;;;;17.63;12.50;;;-1.00;99.90;;;;;;5050451;28;20543;-66
2022/03/06 00:05:41;;;;;;;19.87;12.50;;;-1.00;99.90;;;;;;5044195;28;20447;-67
2022/03/06 00:08:08;;;;;;;19.83;11.80;;;-0.90;99.90;;;;;;5050320;28;20448;-66
2022/03/06 00:10:35;;;;;;;17.07;11.27;;;-0.90;99.90;;;;;;5049743;28;20495;-67
2022/03/06 00:13:04;;;;;;;17.67;12.57;;;-0.70;99.90;;;;;;5050189;28;20474;-67
2022/03/06 00:15:31;;;;;;;15.80;10.63;;;-0.70;99.90;;;;;;5050171;28;20498;-68
2022/03/06 00:17:58;;;;;;;19.70;11.60;;;-0.70;99.90;;;;;;5050026;28;20447;-67
2022/03/06 00:20:25;;;;;;;19.90;12.47;;;-0.60;99.90;;;;;;5049751;28;20463;-67
2022/03/06 00:22:52;;;;;;;17.77;11.93;;;-0.50;99.90;;;;;;5041519;28;20535;-67
2022/03/06 00:25:19;;;;;;;17.23;11.50;;;-0.60;99.90;;;;;;5046119;28;20456;-67
2022/03/06 00:27:45;;;;;;;17.70;12.37;;;-0.50;99.90;;;;;;5046022;28;20445;-67
2022/03/06 00:30:14;;;;;;;17.10;12.80;;;-0.60;99.90;;;;;;5043145;28;20490;-67
2022/03/06 00:32:41;;;;;;;18.03;12.30;;;-0.60;99.90;;;;;;5046776;28;20743;-67
2022/03/06 00:35:09;;;;;;;22.00;14.67;;;-0.60;99.90;;;;;;5047280;28;20573;-67
2022/03/06 00:37:37;;;;;;;18.40;13.43;;;-0.80;99.90;;;;;;5048859;28;20480;-67
2022/03/06 00:40:06;;;;;;;18.20;12.37;;;-1.00;99.90;;;;;;5048335;28;20452;-67
2022/03/06 00:42:33;;;;;;;18.73;11.40;;;-1.10;99.90;;;;;;5049306;28;20483;-68
2022/03/06 00:45:00;;;;;;;22.60;11.90;;;-1.20;99.90;;;;;;5048258;28;20454;-67
2022/03/06 00:47:28;;;;;;;19.17;11.90;;;-1.20;99.90;;;;;;5048522;28;20930;-67
2022/03/06 00:49:55;;;;;;;17.77;11.57;;;-1.40;99.90;;;;;;5048662;28;20447;-67
2022/03/06 00:52:22;;;;;;;16.77;11.57;;;-1.50;99.90;;;;;;5043964;28;20470;-67
2022/03/06 00:54:49;;;;;;;17.00;12.33;;;-1.60;99.90;;;;;;5044576;28;20539;-67
2022/03/06 00:57:15;;;;;;;18.37;12.73;;;-1.70;99.90;;;;;;5048298;28;20447;-67
2022/03/06 00:59:42;;;;;;;18.53;12.73;;;-1.70;99.90;;;;;;5048622;28;20458;-67
2022/03/06 01:02:09;;;;;;;22.53;13.60;;;-1.70;99.90;;;;;;5047770;28;20460;-67
2022/03/06 01:04:39;;;;;;;19.30;12.47;;;-1.70;99.90;;;;;;5048056;28;20448;-67
2022/03/06 01:07:06;;;;;;;21.93;12.70;;;-1.80;99.90;;;;;;5048053;28;20472;-67
2022/03/06 01:09:33;;;;;;;20.70;12.30;;;-1.80;99.90;;;;;;5048753;28;20531;-67
2022/03/06 01:12:00;;;;;;;20.07;12.97;;;-1.80;99.90;;;;;;5048585;28;20586;-68
2022/03/06 01:14:27;;;;;;;18.47;13.00;;;-1.70;99.90;;;;;;5047839;28;21003;-66
2022/03/06 01:16:54;;;;;;;16.23;11.83;;;-1.80;99.90;;;;;;5048593;28;20452;-67
2022/03/06 01:19:20;;;;;;;21.77;12.57;;;-1.90;99.90;;;;;;5047593;28;20452;-67
2022/03/06 01:21:49;;;;;;;19.57;12.40;;;-1.90;99.90;;;;;;5046927;28;20462;-67
2022/03/06 01:24:16;;;;;;;19.00;12.00;;;-1.90;99.90;;;;;;5045858;28;20527;-67
2022/03/06 01:26:43;;;;;;;20.03;11.60;;;-1.90;99.90;;;;;;5048382;28;20448;-67
2022/03/06 01:29:10;;;;;;;19.10;11.57;;;-1.80;99.90;;;;;;5047576;28;20914;-67
2022/03/06 01:31:37;;;;;;;19.47;12.40;;;-1.90;99.90;;;;;;5047780;28;20980;-67
2022/03/06 01:34:04;;;;;;;20.77;13.27;;;-1.90;99.90;;;;;;5047726;28;20459;-67
2022/03/06 01:36:32;;;;;;;23.00;13.07;;;-1.90;99.90;;;;;;5047964;28;20928;-67
2022/03/06 01:39:00;;;;;;;17.50;12.27;;;-1.90;99.90;;;;;;5048116;28;20456;-67
2022/03/06 01:41:27;;;;;;;18.00;12.80;;;-1.90;99.90;;;;;;5041173;28;20464;-67
2022/03/06 01:43:54;;;;;;;18.23;13.13;;;-1.90;99.90;;;;;;5047813;28;20483;-67
2022/03/06 01:46:21;;;;;;;21.30;13.07;;;-1.90;99.90;;;;;;5047160;28;20456;-67
2022/03/06 01:48:48;;;;;;;20.30;12.43;;;-1.90;99.90;;;;;;5048408;28;20448;-67
2022/03/06 01:51:15;;;;;;;22.80;12.37;;;-2.00;99.90;;;;;;5047257;28;20869;-67
2022/03/06 01:53:42;;;;;;;16.57;12.20;;;-1.90;99.90;;;;;;5047643;28;20489;-66
2022/03/06 01:56:13;;;;;;;17.43;11.60;;;-2.00;99.90;;;;;;5043807;28;20456;-67
2022/03/06 01:58:40;;;;;;;18.43;12.17;;;-1.90;99.90;;;;;;5048050;28;20950;-68
2022/03/06 02:01:06;;;;;;;17.73;12.00;;;-1.80;99.90;;;;;;5047417;28;20468;-66
2022/03/06 02:03:34;;;;;;;20.17;11.90;;;-1.80;99.90;;;;;;5047952;28;20536;-66
2022/03/06 02:06:01;;;;;;;17.03;11.43;;;-1.70;99.90;;;;;;5047641;28;20462;-66
2022/03/06 02:08:28;;;;;;;18.40;12.10;;;-1.70;99.90;;;;;;5047798;28;20483;-67
2022/03/06 02:10:55;;;;;;;25.13;12.40;;;-1.70;99.90;;;;;;5047486;28;20962;-66
2022/03/06 02:13:25;;;;;;;18.30;12.13;;;-1.80;99.90;;;;;;5046903;28;20967;-66
2022/03/06 02:15:53;;;;;;;14.57;10.97;;;-1.70;99.90;;;;;;5047392;28;20462;-66
2022/03/06 02:18:20;;;;;;;18.00;11.13;;;-1.70;99.90;;;;;;5047189;28;20450;-67
2022/03/06 02:20:48;;;;;;;20.60;11.93;;;-1.70;99.90;;;;;;5046882;28;20563;-66
2022/03/06 02:23:16;;;;;;;24.10;12.07;;;-1.70;99.90;;;;;;5042162;28;20514;-67
2022/03/06 02:25:43;;;;;;;20.37;12.30;;;-1.70;99.90;;;;;;5046752;28;20467;-66
2022/03/06 02:28:11;;;;;;;15.70;10.47;;;-1.70;99.90;;;;;;5047086;28;21237;-66
2022/03/06 02:30:40;;;;;;;21.00;12.50;;;-1.70;99.90;;;;;;5047192;28;20479;-66
2022/03/06 02:33:09;;;;;;;17.50;11.60;;;-1.70;99.90;;;;;;5049191;28;20444;-67
2022/03/06 02:35:36;;;;;;;17.47;11.43;;;-1.70;99.90;;;;;;5050581;28;20929;-66
2022/03/06 02:38:04;;;;;;;19.50;11.67;;;-1.70;99.90;;;;;;5043433;28;20457;-66
2022/03/06 02:40:39;;;;;;;19.23;11.90;;;-1.70;99.90;;;;;;5039493;28;20460;-67
2022/03/06 02:43:06;;;;;;;19.37;11.50;;;-1.70;99.90;;;;;;5051912;28;20443;-66
2022/03/06 02:45:34;;;;;;;16.47;10.70;;;-1.80;99.90;;;;;;5052338;28;20447;-67
2022/03/06 02:48:02;;;;;;;20.20;12.40;;;-1.80;99.90;;;;;;5052114;28;20436;-67
2022/03/06 02:50:31;;;;;;;18.70;11.80;;;-1.80;99.90;;;;;;5052014;28;20470;-68
2022/03/06 02:52:59;;;;;;;19.60;12.20;;;-1.80;99.90;;;;;;5046659;28;20479;-67
2022/03/06 02:55:26;;;;;;;18.60;11.60;;;-1.80;99.90;;;;;;5050742;28;20539;-67
2022/03/06 02:57:55;;;;;;;17.70;12.37;;;-1.90;99.90;;;;;;5047411;28;20474;-68
2022/03/06 03:00:25;;;;;;;16.90;10.77;;;-1.90;99.90;;;;;;5054095;28;20563;-67
2022/03/06 03:02:52;;;;;;;17.50;11.27;;;-1.90;99.90;;;;;;5053250;28;20467;-67
2022/03/06 03:05:20;;;;;;;16.20;10.70;;;-1.80;99.90;;;;;;5052334;28;20533;-67
2022/03/06 03:07:49;;;;;;;19.40;12.33;;;-1.80;99.90;;;;;;5052866;28;20595;-66
2022/03/06 03:10:18;;;;;;;22.10;12.30;;;-1.80;99.90;;;;;;5051566;28;20451;-66
2022/03/06 03:12:45;;;;;;;17.60;11.50;;;-1.90;99.90;;;;;;5052037;28;20494;-67
2022/03/06 03:15:15;;;;;;;17.27;11.03;;;-1.90;99.90;;;;;;5051303;28;20514;-67
2022/03/06 03:17:42;;;;;;;16.73;10.77;;;-2.00;99.90;;;;;;5051414;28;20462;-67
2022/03/06 03:20:10;;;;;;;17.43;11.50;;;-2.00;99.90;;;;;;5050984;28;20456;-66
2022/03/06 03:22:37;;;;;;;20.87;11.60;;;-2.00;99.90;;;;;;5051617;28;20899;-66
2022/03/06 03:25:06;;;;;;;17.83;11.60;;;-2.00;99.90;;;;;;5051019;28;20456;-66
2022/03/06 03:27:33;;;;;;;18.60;11.30;;;-2.10;99.90;;;;;;5053149;28;20455;-67
2022/03/06 03:30:00;;;;;;;19.77;12.37;;;-2.10;99.90;;;;;;5052740;28;20526;-66
2022/03/06 03:32:28;;;;;;;15.00;11.30;;;-2.10;99.90;;;;;;5052909;28;20575;-66
2022/03/06 03:34:55;;;;;;;21.03;13.30;;;-2.20;99.90;;;;;;5051564;28;20527;-67
2022/03/06 03:37:22;;;;;;;16.20;11.27;;;-2.40;99.90;;;;;;5053369;28;20467;-66
2022/03/06 03:39:49;;;;;;;19.47;11.47;;;-2.40;99.90;;;;;;5053023;28;20463;-66
2022/03/06 03:42:15;;;;;;;18.17;11.67;;;-2.50;99.90;;;;;;5052687;28;20543;-67
2022/03/06 03:44:42;;;;;;;19.20;11.87;;;-2.50;99.90;;;;;;5051579;28;20452;-66
2022/03/06 03:47:09;;;;;;;18.50;12.00;;;-2.40;99.90;;;;;;5052750;28;20496;-66
2022/03/06 03:49:37;;;;;;;19.80;12.70;;;-2.50;99.90;;;;;;5052856;28;20535;-66
2022/03/06 03:52:05;;;;;;;23.07;12.67;;;-2.50;99.90;;;;;;5052781;28;20495;-66
2022/03/06 03:54:32;;;;;;;17.00;11.83;;;-2.60;99.90;;;;;;5052418;28;20448;-66
2022/03/06 03:56:59;;;;;;;22.73;12.17;;;-2.70;99.90;;;;;;5052548;28;20946;-65
2022/03/06 03:59:26;;;;;;;16.60;11.93;;;-2.60;99.90;;;;;;5052504;28;20539;-66
2022/03/06 04:01:52;;;;;;;18.97;14.10;;;-2.70;99.90;;;;;;5052077;28;20465;-65
2022/03/06 04:04:19;;;;;;;19.40;12.10;;;-2.60;99.90;;;;;;5052371;28;20444;-66
2022/03/06 04:06:48;;;;;;;19.33;11.97;;;-2.60;99.90;;;;;;5052496;28;20447;-66
2022/03/06 04:09:14;;;;;;;16.37;11.60;;;-2.60;99.90;;;;;;5052094;28;20477;-66
2022/03/06 04:11:41;;;;;;;20.50;12.60;;;-2.70;99.90;;;;;;5051980;28;20484;-66
2022/03/06 04:14:08;;;;;;;16.43;11.40;;;-2.80;99.90;;;;;;5051734;28;20548;-66
2022/03/06 04:16:35;;;;;;;17.77;12.57;;;-2.80;99.90;;;;;;5052005;28;20949;-66
2022/03/06 04:19:02;;;;;;;20.67;12.63;;;-2.90;99.90;;;;;;5052228;28;20539;-66
2022/03/06 04:21:29;;;;;;;21.10;12.40;;;-2.90;99.90;;;;;;5051885;28;20460;-66
2022/03/06 04:23:57;;;;;;;18.33;11.40;;;-3.00;99.90;;;;;;5051825;28;20476;-66
2022/03/06 04:26:24;;;;;;;21.23;12.30;;;-2.90;99.90;;;;;;5051780;28;20450;-66
2022/03/06 04:28:51;;;;;;;16.33;11.60;;;-2.90;99.90;;;;;;5052266;28;20513;-66
2022/03/06 04:31:17;;;;;;;20.13;12.23;;;-3.00;99.90;;;;;;5051822;28;21008;-66
2022/03/06 04:33:44;;;;;;;21.30;13.00;;;-3.10;99.90;;;;;;5052010;28;21054;-66
2022/03/06 04:36:11;;;;;;;19.23;12.90;;;-3.00;99.90;;;;;;5050918;28;20458;-67
2022/03/06 04:38:39;;;;;;;18.60;13.27;;;-3.10;99.90;;;;;;5043793;28;20444;-66
2022/03/06 04:41:07;;;;;;;21.50;11.87;;;-3.10;99.90;;;;;;5033770;28;20550;-66
2022/03/06 04:43:34;;;;;;;21.70;12.23;;;-3.10;99.90;;;;;;5031395;28;20447;-66
2022/03/06 04:46:01;;;;;;;20.63;13.33;;;-3.00;99.90;;;;;;5031473;28;20536;-66
2022/03/06 04:48:28;;;;;;;19.37;11.97;;;-3.00;99.90;;;;;;5032114;28;20480;-66
2022/03/06 04:50:55;;;;;;;20.27;11.63;;;-2.90;99.90;;;;;;5032423;28;20469;-66
2022/03/06 04:53:22;;;;;;;19.70;11.53;;;-3.00;99.90;;;;;;5034704;28;20479;-66
2022/03/06 04:55:48;;;;;;;17.93;11.63;;;-3.00;99.90;;;;;;5041052;28;20904;-66
2022/03/06 04:58:17;;;;;;;17.53;11.10;;;-3.10;99.90;;;;;;5038543;28;20483;-66
2022/03/06 05:00:43;;;;;;;20.23;11.70;;;-3.10;99.90;;;;;;5039483;28;20471;-67
2022/03/06 05:03:10;;;;;;;17.87;11.90;;;-3.00;99.90;;;;;;5032609;28;20447;-66
2022/03/06 05:05:37;;;;;;;19.33;13.00;;;-3.00;99.90;;;;;;5031091;28;20453;-66
2022/03/06 05:08:05;;;;;;;18.50;11.40;;;-3.00;99.90;;;;;;5031462;28;20456;-66
2022/03/06 05:10:32;;;;;;;22.23;11.90;;;-3.00;99.90;;;;;;5038262;28;20464;-66
2022/03/06 05:12:58;;;;;;;18.50;12.00;;;-3.10;99.90;;;;;;5045945;28;20560;-66
2022/03/06 05:15:27;;;;;;;19.73;11.27;;;-3.10;99.90;;;;;;5031067;28;20491;-66
2022/03/06 05:17:54;;;;;;;18.27;12.43;;;-3.10;99.90;;;;;;5031873;28;20488;-66
2022/03/06 05:20:20;;;;;;;24.63;13.57;;;-3.10;99.90;;;;;;5030653;28;20536;-66
2022/03/06 05:22:47;;;;;;;17.90;11.97;;;-3.10;99.90;;;;;;5031025;28;20449;-66
2022/03/06 05:25:14;;;;;;;20.83;12.53;;;-3.00;99.90;;;;;;5036801;28;20451;-66
2022/03/06 05:27:41;;;;;;;20.47;13.23;;;-3.00;99.90;;;;;;5032027;28;20441;-66
2022/03/06 05:30:10;;;;;;;19.43;11.77;;;-3.00;99.90;;;;;;5030399;28;20457;-66
2022/03/06 05:32:38;;;;;;;22.57;13.07;;;-3.00;99.90;;;;;;5031123;28;21006;-67
2022/03/06 05:35:06;;;;;;;24.53;13.47;;;-3.00;99.90;;;;;;5030554;28;20531;-66
2022/03/06 05:37:33;;;;;;;24.90;14.10;;;-3.10;99.90;;;;;;5030754;28;20531;-66
2022/03/06 05:40:00;;;;;;;21.20;12.07;;;-3.00;99.90;;;;;;5030694;28;20520;-66
2022/03/06 05:42:27;;;;;;;21.60;12.80;;;-3.00;99.90;;;;;;5030475;28;20463;-67
2022/03/06 05:44:53;;;;;;;22.67;13.20;;;-2.90;99.90;;;;;;5030493;28;20448;-66
2022/03/06 05:47:20;;;;;;;24.70;13.20;;;-2.80;99.90;;;;;;5030569;28;20900;-66
2022/03/06 05:49:49;;;;;;;22.50;14.10;;;-2.70;99.90;;;;;;5030680;28;20445;-66
2022/03/06 05:52:16;;;;;;;15.87;11.60;;;-2.70;99.90;;;;;;5030141;28;20495;-66
2022/03/06 05:54:43;;;;;;;20.13;12.60;;;-2.60;99.90;;;;;;5030112;28;20457;-66
2022/03/06 05:57:10;;;;;;;21.93;12.73;;;-2.60;99.90;;;;;;5030091;28;21023;-66
2022/03/06 05:59:37;;;;;;;19.83;10.80;;;-2.50;99.90;;;;;;5031071;28;20532;-66
2022/03/06 06:02:04;;;;;;;18.80;12.57;;;-2.50;99.90;;;;;;5030058;28;20496;-66
2022/03/06 06:04:31;;;;;;;20.20;11.63;;;-2.40;99.90;;;;;;5029905;28;20444;-65
2022/03/06 06:06:59;;;;;;;16.53;11.50;;;-2.50;99.90;;;;;;5029718;28;20445;-66
2022/03/06 06:09:26;;;;;;;20.37;13.47;;;-2.40;99.90;;;;;;5030585;28;20511;-66
2022/03/06 06:11:53;;;;;;;22.20;12.97;;;-2.40;99.90;;;;;;5029963;28;20475;-66
2022/03/06 06:14:20;;;;;;;18.03;11.63;;;-2.40;99.90;;;;;;5030772;28;20969;-66
2022/03/06 06:16:47;;;;;;;17.93;11.40;;;-2.30;99.90;;;;;;5034562;28;20448;-66
2022/03/06 06:19:14;;;;;;;17.03;12.13;;;-2.30;99.90;;;;;;5029730;28;20445;-67
2022/03/06 06:21:43;;;;;;;18.40;11.23;;;-2.20;99.90;;;;;;5029882;28;20464;-66
2022/03/06 06:24:11;;;;;;;18.43;12.00;;;-2.20;99.90;;;;;;5030174;28;20479;-66
2022/03/06 06:26:38;;;;;;;20.13;12.50;;;-2.20;99.90;;;;;;5030277;28;20449;-66
2022/03/06 06:29:05;;;;;;;19.53;12.23;;;-2.20;99.90;;;;;;5029855;28;20479;-66
2022/03/06 06:31:32;;;;;;;17.87;12.50;;;-2.20;99.90;;;;;;5030556;28;20901;-67
2022/03/06 06:33:59;;;;;;;22.37;12.40;;;-2.30;99.90;;;;;;5029772;28;20487;-66
2022/03/06 06:36:26;;;;;;;17.90;12.40;;;-2.30;99.90;;;;;;5029887;28;20946;-67
2022/03/06 06:38:54;;;;;;;19.07;13.10;;;-2.20;99.90;;;;;;5030268;28;20449;-66
2022/03/06 06:41:22;;;;;;;18.40;12.40;;;-2.10;99.90;;;;;;5029911;28;20456;-66
2022/03/06 06:43:49;;;;;;;20.40;14.30;;;-2.10;99.90;;;;;;5029778;28;20456;-66
2022/03/06 06:46:16;;;;;;;21.40;13.90;;;-2.00;99.90;;;;;;5029632;28;20440;-66
2022/03/06 06:48:43;;;;;;;17.83;12.37;;;-1.90;99.90;;;;;;5029697;28;20452;-65
2022/03/06 06:51:10;;;;;;;18.23;12.60;;;-1.90;99.90;;;;;;5029739;28;20461;-66
2022/03/06 06:53:37;;;;;;;19.50;13.90;;;-1.90;99.90;;;;;;5030079;28;20476;-66
2022/03/06 06:56:04;;;;;;;18.40;13.43;;;-1.90;99.90;;;;;;5029093;28;20524;-66
2022/03/06 06:58:32;;;;;;;19.80;12.37;;;-1.80;99.90;;;;;;5029424;28;20441;-66
2022/03/06 07:00:59;;;;;;;24.17;13.60;;;-1.70;99.90;;;;;;5029057;28;20468;-66
2022/03/06 07:03:26;;;;;;;24.30;14.63;;;-1.60;99.90;;;;;;5029245;28;20441;-66
2022/03/06 07:05:52;;;;;;;20.87;13.83;;;-1.50;99.90;;;;;;5029058;28;20451;-66
2022/03/06 07:08:19;;;;;;;22.33;13.17;;;-1.40;99.90;;;;;;5029163;28;20575;-66
2022/03/06 07:10:46;;;;;;;18.70;12.13;;;-1.30;99.90;;;;;;5029219;28;20544;-66
2022/03/06 07:13:13;;;;;;;23.00;14.80;;;-1.20;99.90;;;;;;5028698;28;21018;-66
2022/03/06 07:15:41;;;;;;;26.93;15.27;;;-1.20;99.90;;;;;;5028825;28;20950;-66
2022/03/06 07:18:08;;;;;;;22.30;14.10;;;-1.20;99.90;;;;;;5028960;28;20453;-66
2022/03/06 07:20:35;;;;;;;22.53;14.50;;;-1.10;99.90;;;;;;5032130;28;20978;-66
2022/03/06 07:23:02;;;;;;;22.00;15.27;;;-1.10;99.90;;;;;;5032884;28;20536;-66
2022/03/06 07:25:29;;;;;;;21.70;13.00;;;-1.00;99.90;;;;;;5032658;28;20487;-66
2022/03/06 07:27:56;;;;;;;18.03;14.13;;;-0.90;99.90;;;;;;5032482;28;20476;-66
2022/03/06 07:30:22;;;;;;;24.07;16.00;;;-0.70;99.90;;;;;;5032475;28;20486;-66
2022/03/06 07:32:52;;;;;;;19.67;14.40;;;-0.40;99.90;;;;;;5032620;28;20599;-66
2022/03/06 07:35:21;;;;;;;22.43;15.30;;;-0.10;99.90;;;;;;5032305;28;20457;-66
2022/03/06 07:37:49;;;;;;;16.83;13.23;;;0.50;99.90;;;;;;5032611;28;20460;-67
2022/03/06 07:40:17;;;;;;;21.60;14.87;;;1.20;99.90;;;;;;5032212;28;20476;-67
2022/03/06 07:42:44;;;;;;;22.33;14.50;;;1.50;99.90;;;;;;5032255;28;20828;-67
2022/03/06 07:45:11;;;;;;;18.17;12.97;;;1.40;99.90;;;;;;5031768;28;20468;-66
2022/03/06 07:47:38;;;;;;;19.40;13.20;;;1.30;99.90;;;;;;5032256;28;20456;-67
2022/03/06 07:50:08;;;;;;;17.73;12.33;;;1.20;99.90;;;;;;5032163;28;20839;-66
2022/03/06 07:52:35;;;;;;;16.53;12.57;;;1.10;99.90;;;;;;5032295;28;20511;-66
2022/03/06 07:55:03;;;;;;;19.90;12.50;;;1.00;99.90;;;;;;5031569;28;20445;-66
2022/03/06 07:57:30;;;;;;;18.47;13.20;;;0.90;99.90;;;;;;5032168;28;21183;-66
2022/03/06 07:59:56;;;;;;;23.37;14.20;;;0.90;99.90;;;;;;5031797;28;20990;-66
2022/03/06 08:02:23;;;;;;;20.73;14.80;;;1.00;99.90;;;;;;5032010;28;20461;-66
2022/03/06 08:04:50;;;;;;;18.27;13.57;;;1.10;99.90;;;;;;5031603;28;20453;-66
2022/03/06 08:07:19;;;;;;;19.33;13.60;;;1.20;99.90;;;;;;5031949;28;20896;-66
2022/03/06 08:09:45;;;;;;;23.60;15.00;;;1.40;99.90;;;;;;5031831;28;20523;-66
2022/03/06 08:12:12;;;;;;;21.77;14.80;;;1.40;99.90;;;;;;5031320;28;20465;-66
2022/03/06 08:14:39;;;;;;;19.60;13.63;;;1.50;99.90;;;;;;5031164;28;20480;-66
2022/03/06 08:17:06;;;;;;;19.30;13.17;;;1.60;99.90;;;;;;5031536;28;20830;-66
2022/03/06 08:19:33;;;;;;;20.77;13.17;;;1.90;99.90;;;;;;5031616;28;20456;-66
2022/03/06 08:21:59;;;;;;;18.90;13.13;;;2.00;99.90;;;;;;5031504;28;20472;-66
2022/03/06 08:24:28;;;;;;;18.30;12.57;;;2.20;99.90;;;;;;5031236;28;20447;-66
2022/03/06 08:26:55;;;;;;;20.93;13.60;;;2.20;99.90;;;;;;5031412;28;20875;-66
2022/03/06 08:29:22;;;;;;;19.10;12.50;;;2.30;99.90;;;;;;5031493;28;20444;-66
2022/03/06 08:31:49;;;;;;;19.83;13.73;;;2.40;99.90;;;;;;5030662;28;20564;-66
2022/03/06 08:34:15;;;;;;;17.00;12.80;;;2.50;99.90;;;;;;5030778;28;20494;-66
2022/03/06 08:36:42;;;;;;;19.87;13.40;;;2.60;99.90;;;;;;5031825;28;20905;-66
2022/03/06 08:39:09;;;;;;;15.37;11.40;;;2.90;99.90;;;;;;5034708;28;20468;-66
2022/03/06 08:41:37;;;;;;;19.70;14.03;;;3.10;99.90;;;;;;5033332;28;20553;-66
2022/03/06 08:44:04;;;;;;;19.60;11.80;;;3.20;99.90;;;;;;5032232;28;20445;-66
2022/03/06 08:46:31;;;;;;;16.67;12.17;;;3.50;99.90;;;;;;5033233;28;20955;-66
2022/03/06 08:48:58;;;;;;;18.10;12.87;;;3.80;99.90;;;;;;5030827;28;20532;-66
2022/03/06 08:51:25;;;;;;;18.80;12.27;;;3.90;99.90;;;;;;5031223;28;20469;-66
2022/03/06 08:53:52;;;;;;;19.63;14.43;;;4.00;99.90;;;;;;5030357;28;20473;-67
2022/03/06 08:56:19;;;;;;;18.83;13.07;;;4.20;99.90;;;;;;5030591;28;20962;-66
2022/03/06 08:58:47;;;;;;;18.03;12.50;;;4.20;99.90;;;;;;5030798;28;20460;-66
2022/03/06 09:01:13;;;;;;;18.43;12.80;;;4.50;99.90;;;;;;5030364;28;20491;-66
2022/03/06 09:03:40;;;;;;;18.80;13.13;;;4.70;99.90;;;;;;5044303;28;20451;-66
2022/03/06 09:06:07;;;;;;;18.93;13.03;;;4.90;99.90;;;;;;5035376;28;20445;-66
2022/03/06 09:08:34;;;;;;;17.13;12.43;;;5.20;99.90;;;;;;5042633;28;20476;-66
2022/03/06 09:11:01;;;;;;;19.87;14.67;;;5.50;99.90;;;;;;5042708;28;20467;-66
2022/03/06 09:13:28;;;;;;;15.90;13.70;;;5.90;99.90;;;;;;5036175;28;20484;-66
2022/03/06 09:15:56;;;;;;;13.13;11.40;;;6.20;99.90;;;;;;5031908;28;20456;-65
2022/03/06 09:18:23;;;;;;;13.67;12.10;;;6.20;99.80;;;;;;5031706;28;20440;-66
2022/03/06 09:20:50;;;;;;;15.20;12.60;;;6.50;99.50;;;;;;5033687;28;21060;-65
2022/03/06 09:23:17;;;;;;;15.47;12.80;;;6.70;98.90;;;;;;5030536;28;20441;-65
2022/03/06 09:25:44;;;;;;;15.40;12.90;;;6.90;99.20;;;;;;5029691;28;20528;-65
2022/03/06 09:28:11;;;;;;;15.30;12.67;;;7.40;98.80;;;;;;5029978;28;20440;-65
2022/03/06 09:30:38;;;;;;;16.00;12.37;;;7.60;96.60;;;;;;5033641;28;20484;-66
2022/03/06 09:33:07;;;;;;;18.80;14.00;;;7.70;97.10;;;;;;5031626;28;20484;-66
2022/03/06 09:35:33;;;;;;;17.80;12.93;;;8.00;95.80;;;;;;5029905;28;20499;-65
2022/03/06 09:38:01;;;;;;;14.53;12.63;;;8.00;94.40;;;;;;5030247;28;20545;-65
2022/03/06 09:40:28;;;;;;;18.23;13.40;;;8.10;94.90;;;;;;5029930;28;20904;-65
2022/03/06 09:42:55;;;;;;;17.60;14.30;;;8.30;94.90;;;;;;5029138;28;20457;-66
2022/03/06 09:45:23;;;;;;;17.57;12.00;;;8.80;94.00;;;;;;5029721;28;20460;-68
2022/03/06 09:47:51;;;;;;;14.77;11.70;;;9.10;92.50;;;;;;5030902;28;20884;-66
2022/03/06 09:50:20;;;;;;;14.00;11.03;;;9.10;91.20;;;;;;5033655;28;21012;-66
2022/03/06 09:52:47;;;;;;;15.17;11.40;;;9.20;92.40;;;;;;5034083;28;20456;-65
2022/03/06 09:55:14;;;;;;;16.80;12.20;;;9.80;92.00;;;;;;5043028;28;20448;-65
2022/03/06 09:57:41;;;;;;;16.93;12.03;;;10.10;90.40;;;;;;5035063;28;20451;-65
2022/03/06 10:00:10;;;;;;;15.87;12.80;;;10.40;87.00;;;;;;5037110;28;20470;-65
2022/03/06 10:02:57;;;;;;;16.70;12.37;;;10.20;84.70;;;;;;5033058;28;20476;-66
2022/03/06 10:05:33;;;;;;;14.10;11.03;;;9.90;86.40;;;;;;5034110;28;20488;-65
2022/03/06 10:08:30;;;;;;;17.60;12.80;;;9.50;86.30;;;;;;5042887;28;20887;-65
2022/03/06 10:10:58;;;;;;;16.63;11.60;;;9.00;85.20;;;;;;4967811;28;20467;-66
2022/03/06 10:13:29;;;;;;;14.30;11.20;;;8.60;86.60;;;;;;5015388;28;20481;-65
2022/03/06 10:16:12;;;;;;;13.57;10.93;;;8.20;87.40;;;;;;5035965;28;20479;-65
2022/03/06 10:18:42;;;;;;;13.63;10.80;;;8.30;86.70;;;;;;5043382;28;20483;-65
2022/03/06 10:21:16;;;;;;;13.73;10.50;;;8.30;86.20;;;;;;5039670;28;20471;-65
2022/03/06 10:23:44;;;;;;;13.70;10.70;;;8.00;83.70;;;;;;5042965;28;20446;-65
2022/03/06 10:26:12;;;;;;;13.53;10.97;;;7.80;84.90;;;;;;5037766;28;20919;-66
2022/03/06 10:28:53;;;;;;;13.40;10.57;;;7.60;85.20;;;;;;5042944;28;20447;-65
2022/03/06 10:31:21;;;;;;;14.17;11.17;;;7.40;86.30;;;;;;5038714;28;20493;-65
2022/03/06 10:34:06;;;;;;;12.00;10.13;;;7.50;87.30;;;;;;5043660;28;20476;-66
2022/03/06 10:36:37;;;;;;;11.53;10.33;;;7.80;87.40;;;;;;5042765;28;20446;-67
2022/03/06 10:39:10;;;;;;;16.13;11.33;;;8.70;83.90;;;;;;5043538;28;20444;-67
2022/03/06 10:41:39;;;;;;;14.73;10.63;;;9.20;81.70;;;;;;5045145;28;20474;-64
2022/03/06 10:44:08;;;;;;;15.20;11.00;;;9.30;81.60;;;;;;5045008;28;20456;-66
2022/03/06 10:46:36;;;;;;;13.60;10.07;;;8.90;79.60;;;;;;5045613;28;20448;-67
2022/03/06 10:49:08;;;;;;;11.37;10.10;;;9.00;80.10;;;;;;5043397;28;20473;-66
2022/03/06 10:51:42;;;;;;;13.17;9.57;;;9.50;79.80;;;;;;5045120;28;20549;-66
2022/03/06 10:54:09;;;;;;;12.27;9.23;;;9.80;77.10;;;;;;5045615;28;20479;-69
2022/03/06 10:56:36;;;;;;;11.97;9.93;;;10.10;74.90;;;;;;5047559;28;20491;-66
2022/03/06 10:59:06;;;;;;;14.43;10.43;;;10.50;73.10;;;;;;5046626;28;20451;-66
2022/03/06 11:01:34;;;;;;;14.50;10.63;;;10.40;70.00;;;;;;5044184;28;20479;-67
2022/03/06 11:04:02;;;;;;;14.53;11.30;;;10.10;71.20;;;;;;5046678;28;20513;-67
2022/03/06 11:06:30;;;;;;;11.60;9.67;;;9.90;73.60;;;;;;5045885;28;21031;-67
2022/03/06 11:08:58;;;;;;;13.10;9.87;;;9.90;73.50;;;;;;5043646;28;20900;-67
2022/03/06 11:11:25;;;;;;;12.83;10.43;;;9.40;71.20;;;;;;5045035;28;20475;-69
2022/03/06 11:13:55;;;;;;;11.37;10.17;;;8.60;73.30;;;;;;5043953;28;20558;-66
2022/03/06 11:16:23;;;;;;;13.17;10.30;;;7.90;74.90;;;;;;5041826;28;20491;-66
2022/03/06 11:18:53;;;;;;;12.60;9.70;;;7.70;77.60;;;;;;5044249;28;20440;-66
2022/03/06 11:21:20;;;;;;;11.33;9.60;;;7.50;75.40;;;;;;5046857;28;21299;-66
2022/03/06 11:23:50;;;;;;;12.80;9.77;;;7.50;76.10;;;;;;5041166;28;20451;-66
2022/03/06 11:27:01;;;;;;;12.67;9.67;;;7.30;79.10;;;;;;5045018;28;20471;-65
2022/03/06 11:29:50;;;;;;;12.77;9.97;;;7.10;77.20;;;;;;5045854;28;20817;-66
2022/03/06 11:32:25;;;;;;;13.03;9.47;;;7.00;76.90;;;;;;5021475;28;20466;-65
2022/03/06 11:35:00;;;;;;;10.77;9.33;;;6.60;77.40;;;;;;5041657;28;20556;-66
2022/03/06 11:37:28;;;;;;;12.27;9.43;;;6.60;78.70;;;;;;5045270;28;20817;-66
2022/03/06 11:39:55;;;;;;;12.13;8.80;;;6.70;78.40;;;;;;5040609;28;20460;-65
2022/03/06 11:42:54;;;;;;;12.87;9.97;;;6.90;79.50;;;;;;5041924;28;20468;-65
2022/03/06 11:45:50;;;;;;;13.30;9.37;;;6.80;77.00;;;;;;5046181;28;20578;-65
2022/03/06 11:48:47;;;;;;;11.97;8.23;;;6.60;77.50;;;;;;5045523;28;20448;-67
2022/03/06 11:51:28;;;;;;;12.43;9.50;;;6.30;77.10;;;;;;5047474;28;20543;-65
2022/03/06 11:53:57;;;;;;;11.00;9.07;;;6.30;79.70;;;;;;5047797;28;20491;-65
2022/03/06 11:56:55;;;;;;;13.23;10.33;;;6.30;81.20;;;;;;5051380;28;20444;-66
2022/03/06 11:59:37;;;;;;;10.70;8.30;;;6.50;78.30;;;;;;5012460;28;20456;-65
2022/03/06 12:02:10;;;;;;;13.10;10.00;;;6.40;78.90;;;;;;5046988;28;20511;-65
2022/03/06 12:04:44;;;;;;;13.57;10.33;;;6.50;76.70;;;;;;5035243;28;20893;-66
2022/03/06 12:07:12;;;;;;;12.63;9.70;;;6.40;76.70;;;;;;5039362;28;20864;-65
2022/03/06 12:09:40;;;;;;;10.97;9.20;;;6.40;77.30;;;;;;5043936;28;20454;-66
2022/03/06 12:12:09;;;;;;;10.70;9.60;;;6.80;77.10;;;;;;5037833;28;20563;-65
2022/03/06 12:14:39;;;;;;;10.97;8.10;;;8.00;74.40;;;;;;5046529;28;20881;-67
2022/03/06 12:17:34;;;;;;;12.73;9.20;;;10.00;72.60;;;;;;5042761;28;20539;-66
2022/03/06 12:20:30;;;;;;;11.37;8.40;;;12.00;66.80;;;;;;5041000;28;20499;-66
2022/03/06 12:23:02;;;;;;;10.80;8.73;;;12.50;62.90;;;;;;5043855;28;20536;-66
2022/03/06 12:25:34;;;;;;;10.23;9.03;;;12.60;62.10;;;;;;5049477;28;20444;-66
2022/03/06 12:28:21;;;;;;;14.63;10.00;;;12.80;60.10;;;;;;5044753;28;20510;-67
2022/03/06 12:30:50;;;;;;;13.27;10.83;;;13.00;57.90;;;;;;5044133;28;20483;-66
2022/03/06 12:33:39;;;;;;;12.80;9.87;;;11.30;57.60;;;;;;5030637;28;20445;-66
2022/03/06 12:36:27;;;;;;;12.53;10.50;;;9.70;62.60;;;;;;5043646;28;20941;-67
2022/03/06 12:38:57;;;;;;;12.70;10.50;;;9.20;64.50;;;;;;5035241;28;20452;-66